Weather observations for the past three days for
Pleasanton Municipal Airport
Metric (Imperial)
Date Time (cdt) Wind (kph) Vis. (km) Weather Sky Cond. Temperature (ºC) Relative Humidity Wind Chill (°C) Heat Index (°C) Pressure Precipitation (cm)
Air Dwpt 6 hour altimeter (cm) sea level (mb) 1 hr 3 hr 6 hr
Max. Min.
25 00:15 SE 9 16.09 Fair CLR 27.7 24 80% 31 75.64 0.0
24 23:55 SE 9 16.09 Fair CLR 28 24 79% 32 75.62 0.0
24 23:35 SE 7 16.09 Fair CLR 28.4 24 77% 33 75.59 0.0
24 23:15 SE 11 16.09 Fair CLR 28.8 24 75% 33 75.59 0.0
24 22:55 SE 13 16.09 Fair CLR 29.1 24.1 74% 34 75.59 0.0
24 22:35 SE 11 16.09 Fair CLR 29.5 24.1 73% 34 75.54 0.0
24 22:15 SE 15 G 26 16.09 Fair CLR 29.9 24.2 72% 35 75.54 0.0
24 21:55 SE 15 G 26 16.09 Fair CLR 30.4 24.7 72% 36 75.51 0.0
24 21:35 SE 15 G 30 16.09 Fair CLR 30.9 25 71% 38 75.49 0.0
24 21:15 SE 15 G 30 16.09 Fair CLR 31.5 25.1 69% 39 75.46 0.0
24 20:55 SE 17 16.09 Fair CLR 31.9 25.1 67% 39 75.44 0.0
24 20:35 SE 17 G 33 16.09 Fair CLR 32.5 25.2 65% 40 75.44 0.0
24 20:15 SE 13 G 30 16.09 Fair CLR 33.4 25.3 63% 42 75.41 0.0
24 19:55 SE 19 G 31 16.09 Fair CLR 34.4 25.1 58% 43 75.39 0.0
24 19:35 SE 17 G 26 16.09 Fair CLR 35.3 24.7 54% 43 75.36 0.0
24 19:15 SE 17 G 26 16.09 Fair CLR 36 24.5 51% 44 75.36 0.0
24 18:55 SE 11 G 26 16.09 Fair CLR 36.5 24.4 38.7 34.8 50% 44 75.34 0.0
24 18:35 SE 13 16.09 Fair CLR 37.1 23.5 46% 44 75.34 0.0
24 18:15 SE 15 16.09 Partly Cloudy SCT075 38.1 23.3 43% 45 75.34 0.0
24 17:55 SE 15 16.09 Fair CLR 38.2 23.4 43% 45 75.34 0.0
24 17:35 S 17 11.27 Fair CLR 38.5 22.4 39% 44 75.34 0.0
24 17:15 S 15 16.09 Partly Cloudy SCT065 SCT080 38.4 22.9 41% 45 75.36 0.0
24 16:55 S 9 G 26 11.27 Partly Cloudy SCT065 38.2 22.7 41% 44 75.39 0.0
24 16:35 S 13 11.27 Partly Cloudy SCT065 SCT075 38.1 22.5 41% 44 75.39 0.0
24 16:15 S 15 11.27 Partly Cloudy SCT065 SCT075 38.1 22.7 41% 44 75.41 0.0
24 15:55 S 15 11.27 Mostly Cloudy SCT065 BKN075 38 22.5 41% 44 75.44 0.0
24 15:35 S 13 11.27 Mostly Cloudy BKN055 37.5 22.9 43% 44 75.44 0.0
24 15:15 S 11 G 31 11.27 Mostly Cloudy BKN055 38 22.8 42% 44 75.46 0.0
24 14:55 S 9 11.27 Partly Cloudy SCT055 37.5 22.9 43% 44 75.49 0.0
24 14:35 S 15 G 26 11.27 Fair CLR 37.5 23 43% 44 75.49 0.0
24 14:15 S 11 11.27 Fair CLR 37 23.2 45% 43 75.51 0.0
24 13:55 SE 15 G 28 11.27 Fair CLR 36.7 23.2 46% 43 75.54 0.0
24 13:35 S 17 G 30 11.27 Partly Cloudy SCT048 SCT110 36.4 23.5 47% 43 75.57 0.0
24 13:15 S 19 G 26 11.27 Mostly Cloudy BKN048 35.2 23.1 49% 41 75.59 0.0
24 12:55 S 15 11.27 Mostly Cloudy BKN044 35.2 23.5 35.2 26.7 51% 41 75.59 0.0
24 12:35 S 13 G 26 11.27 Mostly Cloudy BKN038 34.1 23.7 55% 40 75.62 0.0
24 12:15 SE 11 11.27 Mostly Cloudy BKN036 33.2 24.1 59% 40 75.64 0.0
24 11:55 S 22 11.27 Mostly Cloudy BKN030 33.3 24.6 60% 40 75.64 0.0
24 11:35 S 13 11.27 Partly Cloudy SCT030 32.5 24.5 63% 39 75.64 0.0
24 11:15 SE 13 11.27 Partly Cloudy SCT024 32 24.7 65% 39 75.64 0.0
24 10:55 SE 15 11.27 Mostly Cloudy BKN024 31.4 24.5 67% 38 75.64 0.0
24 10:35 SE 15 11.27 Overcast OVC024 30.3 24.5 71% 36 75.64 0.0
24 10:15 SE 15 11.27 Overcast OVC022 29.7 24.3 73% 35 75.64 0.0
24 09:55 S 13 11.27 Overcast OVC022 29.3 24.4 75% 34 75.64 0.0
24 09:35 SE 9 11.27 Overcast OVC020 29 24.4 76% 34 75.64 0.0
24 09:15 S 19 11.27 Overcast OVC022 28.6 24.4 78% 33 75.64 0.0
24 08:55 SE 9 11.27 Overcast OVC021 28.3 24.4 79% 33 75.64 0.0
24 08:35 SE 7 11.27 Overcast BKN017 OVC022 28 24.5 81% 32 75.64 0.0
24 08:15 SE 11 11.27 Overcast BKN019 OVC026 27.8 24.5 82% 32 75.64 0.0
24 07:55 SE 7 11.27 Overcast BKN019 OVC025 27.5 24.4 83% 31 75.62 0.0
24 07:35 SE 7 11.27 Mostly Cloudy BKN021 27.2 24.3 84% 31 75.62 0.0
24 07:15 SE 7 11.27 Mostly Cloudy BKN021 26.9 24.3 86% 30 75.59 0.0
24 06:55 SE 6 11.27 Mostly Cloudy BKN021 26.8 24.2 27.4 26.6 86% 30 75.57 0.0
24 06:35 SE 6 11.27 Mostly Cloudy BKN021 26.6 24.1 86% 29 75.57 0.0
24 06:15 SE 6 11.27 Mostly Cloudy BKN019 26.7 24.1 86% 30 75.54 0.0
24 05:55 SE 6 11.27 Mostly Cloudy BKN021 27 24.1 84% 30 75.54 0.0
24 05:35 SE 9 11.27 Mostly Cloudy BKN021 27 24.1 84% 30 75.54 0.0
24 05:15 SE 9 16.09 Mostly Cloudy BKN021 27.2 24.1 83% 31 75.57 0.0
24 04:55 S 7 16.09 Overcast BKN021 OVC026 27.1 24.1 84% 30 75.57 0.0
24 04:35 SE 9 16.09 Overcast OVC021 27.1 24 83% 30 75.57 0.0
24 04:15 S 11 16.09 Overcast OVC019 27 24.1 84% 30 75.57 0.0
24 03:55 SE 11 16.09 Overcast OVC019 27 24 84% 30 75.57 0.0
24 03:35 S 11 16.09 Overcast OVC018 27 24 84% 30 75.57 0.0
24 03:15 SE 15 16.09 Overcast OVC018 27 24 84% 30 75.54 0.0
24 02:55 SE 13 16.09 Overcast OVC016 27 24 84% 30 75.54 0.0
24 02:35 SE 17 G 26 16.09 Overcast OVC016 27 24 84% 30 75.57 0.0
24 02:15 SE 15 16.09 Overcast OVC016 27 24 84% 30 75.59 0.0
24 01:55 SE 13 16.09 Overcast OVC016 27.1 24 83% 30 75.59 0.0
24 01:35 SE 17 G 26 16.09 Overcast OVC016 27.2 24 83% 30 75.59 0.0
24 01:15 SE 15 G 30 16.09 Mostly Cloudy BKN016 27.2 23.9 82% 30 75.62 0.0
24 00:55 SE 20 G 35 16.09 Mostly Cloudy BKN018 27.5 24 33.3 27.5 81% 31 75.62 0.0
24 00:35 SE 19 G 33 16.09 Overcast OVC018 27.6 24 81% 31 75.64 0.0
24 00:15 SE 17 G 28 16.09 Overcast OVC018 27.6 24 81% 31 75.67 0.0
23 23:55 SE 17 G 28 16.09 Overcast OVC018 27.6 24 81% 31 75.67 0.0
23 23:35 Calm 16.09 Mostly Cloudy BKN018 27.7 24 80% 31 75.67 0.0
23 23:15 SE 20 G 33 16.09 Mostly Cloudy BKN018 27.7 24 80% 31 75.67 0.0
23 22:55 SE 20 G 35 16.09 Partly Cloudy SCT018 28 23.9 78% 32 75.67 0.0
23 22:35 SE 24 G 31 16.09 Fair CLR 28.1 23.8 78% 32 75.64 0.0
23 22:15 SE 20 G 35 16.09 Fair CLR 28.4 23.6 75% 32 75.62 0.0
23 21:55 SE 22 G 33 16.09 Fair CLR 28.7 23.5 74% 33 75.59 0.0
23 21:35 SE 20 G 33 16.09 Fair CLR 29.3 23 69% 33 75.57 0.0
23 21:15 SE 17 G 33 16.09 Fair CLR 29.8 23 67% 34 75.54 0.0
23 20:55 SE 19 G 37 16.09 Fair CLR 30.4 22.5 63% 34 75.51 0.0
23 20:35 SE 20 G 33 16.09 Fair CLR 31 22.1 59% 35 75.46 0.0
23 20:15 SE 19 G 33 16.09 Fair CLR 31.7 21.9 56% 35 75.44 0.0
23 19:55 SE 26 G 41 16.09 Fair CLR 32.2 21.9 55% 36 75.41 0.0
23 19:35 SE 22 G 35 16.09 Fair CLR 32.6 22.6 56% 37 75.41 0.0
23 19:15 SE 24 G 37 16.09 Fair CLR 33 23.5 57% 39 75.41 0.0
23 18:55 SE 31 G 39 16.09 Fair CLR 33.4 23.8 36.5 33.4 57% 39 75.41 0.0
23 18:35 SE 20 G 35 16.09 Partly Cloudy SCT049 34.4 23.6 53% 41 75.41 0.0
23 18:15 SE 22 G 35 16.09 Fair CLR 34.6 23.8 53% 41 75.41 0.0
23 17:55 SE 22 G 31 16.09 Partly Cloudy SCT070 35 23.5 51% 41 75.41 0.0
23 17:35 SE 24 G 41 16.09 Partly Cloudy SCT060 35.4 23.3 50% 41 75.41 0.0
23 17:15 SE 20 16.09 Fair CLR 36 23.2 48% 42 75.44 0.0
23 16:55 SE 19 G 30 16.09 Partly Cloudy SCT065 SCT075 35.6 23.1 48% 41 75.46 0.0
23 16:35 SE 17 G 30 16.09 Partly Cloudy SCT055 SCT075 35.4 23.1 49% 41 75.46 0.0
23 16:15 SE 22 G 33 16.09 Mostly Cloudy SCT055 BKN075 35.2 23.1 49% 41 75.49 0.0
23 15:55 SE 19 G 28 16.09 Mostly Cloudy SCT060 BKN075 35.6 23.3 49% 42 75.51 0.0
23 15:35 SE 15 G 31 16.09 Mostly Cloudy SCT060 BKN075 36.3 22.7 45% 42 75.51 0.0
23 15:15 SE 20 G 31 16.09 Mostly Cloudy BKN060 BKN075 36.1 22.7 46% 42 75.54 0.0
23 14:55 SE 24 16.09 Mostly Cloudy BKN060 36.1 22.4 45% 41 75.54 0.0
23 14:35 S 24 G 35 16.09 Partly Cloudy SCT060 SCT070 36.1 22.4 45% 41 75.59 0.0
23 14:15 S 24 G 33 16.09 Partly Cloudy SCT050 SCT070 35.7 22.8 47% 41 75.59 0.0
23 13:55 S 20 G 28 16.09 Partly Cloudy SCT048 SCT060 SCT070 35.1 22.8 49% 40 75.62 0.0
23 13:35 SE 17 G 28 16.09 Mostly Cloudy BKN050 35.2 23 49% 41 75.64 0.0
23 13:15 S 15 G 41 16.09 Partly Cloudy SCT049 SCT060 34.7 23 51% 40 75.64 0.0
23 12:55 S 22 G 31 16.09 Partly Cloudy SCT047 SCT060 35 23.1 35.1 26.5 50% 41 75.67 0.0
23 12:35 S 26 G 37 16.09 Partly Cloudy SCT047 34.5 23 51% 40 75.67 0.0
23 12:15 S 22 G 33 16.09 Partly Cloudy SCT041 34.1 23.1 53% 40 75.69 0.0
23 11:55 SE 24 G 39 16.09 Partly Cloudy SCT037 33.7 23.7 56% 40 75.72 0.0
23 11:35 S 20 G 35 16.09 Partly Cloudy SCT032 SCT038 33.1 23.7 58% 39 75.72 0.0
23 11:15 SE 19 G 33 11.27 Partly Cloudy SCT031 SCT038 32.3 23.6 60% 38 75.72 0.0
23 10:55 SE 20 G 31 11.27 Partly Cloudy SCT027 31.9 24.1 63% 38 75.72 0.0
23 10:35 SE 20 G 35 11.27 Partly Cloudy SCT025 SCT030 31 24 66% 37 75.72 0.0
23 10:15 SE 22 G 31 11.27 Mostly Cloudy SCT021 BKN028 30.5 24.4 70% 36 75.72 0.0
23 09:55 SE 19 G 35 11.27 Mostly Cloudy BKN019 BKN026 30 24.3 72% 35 75.72 0.0
23 09:35 SE 20 G 31 11.27 Mostly Cloudy BKN019 BKN023 29.1 24.5 76% 34 75.72 0.0
23 09:15 SE 20 G 35 11.27 Overcast SCT016 OVC023 28.5 24.6 79% 33 75.72 0.0
23 08:55 SE 19 11.27 Mostly Cloudy BKN016 BKN023 27.8 24.5 82% 32 75.72 0.0
23 08:35 SE 13 11.27 Overcast BKN014 OVC020 27.5 24.5 84% 31 75.69 0.0
23 08:15 SE 11 11.27 Overcast BKN012 OVC019 27 24.5 86% 30 75.69 0.0
23 07:55 SE 6 11.27 Overcast OVC012 26.9 24.5 87% 30 75.69 0.0
23 07:35 E 11 11.27 Overcast OVC012 26.7 24.5 88% 30 75.67 0.0
23 07:15 SE 11 11.27 Overcast OVC010 26.6 24.5 88% 29 75.67 0.0
23 06:55 SE 15 11.27 Overcast BKN010 OVC014 26.5 24.4 27.2 26.1 88% 29 75.67 0.0
23 06:35 SE 15 G 28 16.09 Overcast OVC012 26.5 24.3 88% 29 75.67 0.0
23 06:15 SE 15 16.09 Overcast OVC012 26.5 24.3 88% 29 75.67 0.0
23 05:55 SE 11 16.09 Overcast OVC012 26.4 24.2 88% 29 75.67 0.0
23 05:35 SE 11 16.09 Overcast BKN012 OVC024 26.3 24.2 88% 29 75.67 0.0
23 05:15 SE 17 G 26 16.09 Overcast BKN010 OVC018 26.3 24.4 89% 29 75.67 0.0
23 04:55 SE 11 16.09 Overcast OVC012 26.3 24.3 89% 29 75.67 0.0
23 04:35 SE 19 16.09 Overcast OVC012 26.3 24.3 89% 29 75.67 0.0
23 04:15 E 19 16.09 Mostly Cloudy BKN012 BKN017 26.1 24.2 89% 28 75.67 0.0
23 03:55 E 15 16.09 Partly Cloudy SCT014 26.1 24.2 89% 28 75.67 0.0
23 03:35 E 15 16.09 Partly Cloudy SCT014 26.2 24.1 88% 28 75.67 0.0
23 03:15 E 13 16.09 Partly Cloudy SCT014 26.3 24.1 88% 29 75.67 0.0
23 02:55 E 13 16.09 Fair CLR 26.5 24.1 87% 29 75.67 0.0
23 02:35 E 17 16.09 Partly Cloudy SCT013 26.6 24.1 86% 29 75.67 0.0
23 02:15 E 15 G 28 16.09 Mostly Cloudy BKN017 26.9 24.1 85% 30 75.69 0.0
23 01:55 SE 15 G 30 16.09 Mostly Cloudy BKN017 BKN023 27 24 84% 30 75.72 0.0
23 01:35 E 15 16.09 Mostly Cloudy BKN017 27 24.2 85% 30 75.77 0.0
23 01:15 SE 15 G 26 16.09 Mostly Cloudy BKN019 27.1 24.1 84% 30 75.79 0.0
23 00:55 SE 17 16.09 Partly Cloudy SCT019 27 24.1 34 27 84% 30 75.82 0.0
23 00:35 Calm 16.09 Partly Cloudy SCT019 27.2 24.1 83% 31 75.82 0.0
23 00:15 E 22 G 28 16.09 Fair CLR 27.5 24 81% 31 75.77 0.0
22 23:55 SE 19 G 41 16.09 Partly Cloudy SCT018 27.7 24 80% 31 75.72 0.0
22 23:35 E 24 G 35 16.09 Overcast OVC018 28.2 24.2 79% 32 75.72 0.0
22 23:15 E 19 G 35 16.09 Mostly Cloudy BKN018 28.5 24.5 79% 33 75.69 0.0
22 22:55 E 22 G 33 16.09 Mostly Cloudy BKN018 28.6 24.7 79% 34 75.64 0.0
22 22:35 E 22 16.09 Overcast OVC018 28.9 25 80% 34 75.64 0.0
22 22:15 SE 19 G 31 16.09 Mostly Cloudy BKN020 29.1 25.1 79% 35 75.64 0.0
22 21:55 SE 20 G 30 16.09 Mostly Cloudy BKN020 29.3 25.1 78% 35 75.62 0.0
22 21:35 SE 17 G 30 16.09 Partly Cloudy SCT022 29.5 25 77% 35 75.59 0.0
22 21:15 SE 13 G 30 16.09 Partly Cloudy SCT022 29.8 25.1 76% 36 75.59 0.0
22 20:55 SE 20 G 30 16.09 Mostly Cloudy BKN024 30.2 25.2 75% 37 75.54 0.0
22 20:35 SE 13 G 28 11.27 Partly Cloudy SCT026 30.5 25.1 73% 37 75.51 0.0
22 20:15 SE 20 G 31 11.27 Fair CLR 31 25.1 71% 38 75.49 0.0
22 19:55 SE 22 G 33 11.27 Fair CLR 31.5 25.2 69% 39 75.51 0.0
22 19:35 SE 22 G 37 16.09 Fair CLR 32.2 25.2 67% 40 75.46 0.0
22 19:15 SE 22 G 35 16.09 Fair CLR 32.7 25 64% 40 75.44 0.0
22 18:55 SE 20 G 30 16.09 Fair CLR 34.1 24.5 36.4 33.7 57% 41 75.44 0.0
22 18:35 SE 15 G 35 16.09 Fair CLR 33.8 24.1 57% 40 75.36 0.0
22 18:15 SE 17 G 33 16.09 Fair CLR 34.4 24 55% 41 75.39 0.0
22 17:55 SE 24 G 33 16.09 Fair CLR 34.3 23.6 54% 40 75.39 0.0
22 17:35 SE 17 G 30 16.09 Fair CLR 34.6 23.5 52% 41 75.44 0.0
22 17:15 SE 22 G 28 16.09 Fair CLR 34.8 23.1 51% 40 75.44 0.0
22 16:55 SE 17 16.09 Fair CLR 35 22.4 48% 40 75.46 0.0
22 16:35 SE 20 G 33 16.09 Fair CLR 35.4 22.1 46% 40 75.44 0.0
22 16:15 SE 17 G 30 16.09 Fair CLR 35.6 22.2 46% 40 75.46 0.0
22 15:55 S 19 G 28 16.09 Fair CLR 35.8 22.2 45% 41 75.49 0.0
22 15:35 S 17 G 26 16.09 Fair CLR 36.1 22.9 46% 42 75.54 0.0
22 15:15 SE 19 G 33 16.09 Partly Cloudy SCT050 35.7 22.3 46% 41 75.57 0.0
22 14:55 S 19 G 31 16.09 Partly Cloudy SCT050 35.6 22.7 47% 41 75.62 0.0
22 14:35 SE 20 G 30 16.09 Partly Cloudy SCT050 35 22.7 49% 40 75.64 0.0
22 14:15 S 13 G 28 16.09 Partly Cloudy SCT050 34.7 22.7 50% 40 75.67 0.0
22 13:55 S 11 16.09 Partly Cloudy SCT048 SCT120 34.4 22.8 51% 40 75.69 0.0
22 13:35 S 20 G 28 16.09 Partly Cloudy SCT046 SCT120 34.5 22.9 51% 40 75.72 0.0
22 13:15 S 17 G 30 16.09 Partly Cloudy SCT043 35 23 50% 41 75.72 0.0
22 12:55 SE 19 G 30 16.09 Partly Cloudy SCT039 SCT049 33.9 23.4 34.1 26.7 54% 40 75.72 0.0
22 12:35 SE 19 G 30 16.09 Partly Cloudy SCT036 33.1 23.6 57% 39 75.72 0.0
22 12:15 SE 15 G 26 16.09 Partly Cloudy SCT030 32.3 23.6 60% 38 75.74 0.0
22 11:55 SE 15 16.09 Partly Cloudy SCT030 SCT036 32.4 23.9 61% 38 75.74 0.0
22 11:35 SE 15 G 28 16.09 Mostly Cloudy BKN028 BKN036 31.7 24.2 64% 38 75.77 0.0
22 11:15 SE 13 11.27 Mostly Cloudy BKN026 BKN032 30.3 24.1 69% 36 75.77 0.0
22 10:55 SE 15 16.09 Mostly Cloudy BKN026 BKN032 30.6 24.4 70% 36 75.79 0.0
22 10:35 SE 15 16.09 Overcast BKN020 OVC030 29.8 24.3 72% 35 75.82 0.0
22 10:15 E 13 11.27 Mostly Cloudy BKN020 BKN026 29.1 24.3 75% 34 75.79 0.0
22 09:55 SE 13 11.27 Mostly Cloudy BKN018 BKN028 28.8 24.4 77% 34 75.82 0.0
22 09:35 SE 9 11.27 Overcast SCT016 BKN021 OVC030 28.2 24.4 80% 33 75.84 0.0
22 09:15 SE 11 11.27 Overcast BKN016 OVC020 27.8 24.5 82% 32 75.82 0.0
22 08:55 SE 13 11.27 Overcast BKN014 BKN021 OVC029 27.6 24.5 83% 32 75.79 0.0
22 08:35 SE 11 8.05 Overcast with Haze BKN014 OVC021 27.4 24.6 85% 31 75.77 0.0
22 08:15 E 11 8.05 Overcast with Haze OVC012 27.2 24.6 86% 31 75.77 0.0
22 07:55 E 13 8.05 Fog/Mist OVC012 27.1 24.7 87% 31 75.74 0.0
22 07:35 E 11 8.05 Overcast with Haze OVC014 27 24.6 87% 30 75.72 0.0
22 07:15 SE 9 8.05 Fog/Mist BKN012 OVC025 26.8 24.6 88% 30 75.72 0.0
22 06:55 SE 7 8.05 Fog/Mist SCT012 BKN025 BKN030 26.8 24.6 28 26.7 88% 30 75.72 0.0
22 06:35 SE 11 11.27 Overcast SCT012 BKN019 OVC032 27 24.5 86% 30 75.69 0.0
22 06:15 SE 9 11.27 Overcast SCT013 BKN019 OVC032 27 24.6 87% 30 75.72 0.0
22 05:55 SE 11 11.27 Overcast BKN013 BKN017 OVC025 27 24.6 87% 30 75.72 0.0
22 05:35 SE 7 11.27 Overcast OVC013 26.9 24.6 87% 30 75.69 0.0
22 05:15 SE 11 11.27 Overcast OVC013 26.8 24.6 88% 30 75.67 0.0
22 04:55 SE 7 11.27 Overcast BKN011 OVC020 27 24.6 87% 30 75.67 0.0
22 04:35 SE 15 11.27 Overcast BKN013 OVC017 26.8 24.5 87% 30 75.67 0.0
22 04:15 SE 9 11.27 Mostly Cloudy BKN011 BKN018 26.8 24.5 87% 30 75.67 0.0
22 03:55 SE 9 11.27 Mostly Cloudy BKN013 26.8 24.5 87% 30 75.69 0.0
22 03:35 SE 15 11.27 Mostly Cloudy BKN015 BKN019 26.8 24.4 87% 30 75.69 0.0
22 03:15 SE 15 11.27 Overcast OVC015 27 24.5 86% 30 75.72 0.0
22 02:55 SE 7 11.27 Partly Cloudy SCT015 26.8 24.4 87% 30 75.74 0.0
22 02:35 S 17 11.27 Fair CLR 27 24.3 85% 30 75.74 0.0
22 02:15 SE 17 11.27 Fair CLR 27.1 24.4 85% 31 75.72 0.0
22 01:55 SE 17 11.27 Fair CLR 27.2 24.3 84% 31 75.72 0.0
22 01:35 SE 11 G 28 11.27 Fair CLR 27.4 24.4 84% 31 75.72 0.0
22 01:15 SE 19 11.27 Fair CLR 27.7 24.1 81% 31 75.74 0.0
22 00:55 SE 19 11.27 Partly Cloudy SCT019 28 24.3 34.1 28 80% 32 75.77 0.0
22 00:35 SE 17 G 28 11.27 Partly Cloudy SCT021 28 24.5 81% 32 75.79 0.0
Date Time (cdt) Wind (kph) Vis. (km) Weather Sky Cond. Air Dwpt Max. Min. Relative Humidity Wind Chill (°C) Heat Index (°C) altimeter (cm) sea level (mb) 1 hr 3 hr 6 hr
6 hour
Temperature (ºC) Pressure Precipitation (cm)